sensor_id;sensor_type;location;lat;lon;timestamp;P1;durP1;ratioP1;P2;durP2;ratioP2
10473;SDS011;5284;50.446;7.904;2022-08-19T00:04:30;41.50;;;27.80;;
10473;SDS011;5284;50.446;7.904;2022-08-19T00:09:36;41.20;;;29.17;;
10473;SDS011;5284;50.446;7.904;2022-08-19T00:14:40;44.45;;;27.42;;
10473;SDS011;5284;50.446;7.904;2022-08-19T00:19:43;47.45;;;29.80;;
10473;SDS011;5284;50.446;7.904;2022-08-19T00:24:46;46.70;;;29.10;;
10473;SDS011;5284;50.446;7.904;2022-08-19T00:29:52;44.78;;;29.10;;
10473;SDS011;5284;50.446;7.904;2022-08-19T00:34:55;47.83;;;28.48;;
10473;SDS011;5284;50.446;7.904;2022-08-19T00:39:58;40.67;;;28.00;;
10473;SDS011;5284;50.446;7.904;2022-08-19T00:45:02;41.30;;;28.15;;
10473;SDS011;5284;50.446;7.904;2022-08-19T00:50:13;41.90;;;30.00;;
10473;SDS011;5284;50.446;7.904;2022-08-19T00:55:19;43.13;;;28.92;;
10473;SDS011;5284;50.446;7.904;2022-08-19T01:00:26;46.17;;;31.08;;
10473;SDS011;5284;50.446;7.904;2022-08-19T01:05:29;45.95;;;31.42;;
10473;SDS011;5284;50.446;7.904;2022-08-19T01:10:33;47.85;;;31.67;;
10473;SDS011;5284;50.446;7.904;2022-08-19T01:15:43;46.20;;;29.98;;
10473;SDS011;5284;50.446;7.904;2022-08-19T01:20:49;46.88;;;31.40;;
10473;SDS011;5284;50.446;7.904;2022-08-19T01:25:55;53.00;;;30.42;;
10473;SDS011;5284;50.446;7.904;2022-08-19T01:30:59;53.13;;;32.05;;
10473;SDS011;5284;50.446;7.904;2022-08-19T01:36:09;43.97;;;29.33;;
10473;SDS011;5284;50.446;7.904;2022-08-19T01:41:15;43.53;;;29.27;;
10473;SDS011;5284;50.446;7.904;2022-08-19T01:46:19;55.08;;;31.73;;
10473;SDS011;5284;50.446;7.904;2022-08-19T01:51:25;56.47;;;29.50;;
10473;SDS011;5284;50.446;7.904;2022-08-19T01:56:30;47.28;;;30.30;;
10473;SDS011;5284;50.446;7.904;2022-08-19T02:01:33;48.55;;;31.30;;
10473;SDS011;5284;50.446;7.904;2022-08-19T02:06:36;46.88;;;28.50;;
10473;SDS011;5284;50.446;7.904;2022-08-19T02:11:40;42.20;;;29.02;;
10473;SDS011;5284;50.446;7.904;2022-08-19T02:16:43;44.88;;;28.95;;
10473;SDS011;5284;50.446;7.904;2022-08-19T02:21:46;42.72;;;28.25;;
10473;SDS011;5284;50.446;7.904;2022-08-19T02:26:50;42.45;;;29.25;;
10473;SDS011;5284;50.446;7.904;2022-08-19T02:31:53;44.00;;;29.42;;
10473;SDS011;5284;50.446;7.904;2022-08-19T02:36:56;51.03;;;32.75;;
10473;SDS011;5284;50.446;7.904;2022-08-19T02:42:05;49.30;;;31.23;;
10473;SDS011;5284;50.446;7.904;2022-08-19T02:47:09;50.22;;;32.38;;
10473;SDS011;5284;50.446;7.904;2022-08-19T02:52:12;41.30;;;30.67;;
10473;SDS011;5284;50.446;7.904;2022-08-19T02:57:16;58.22;;;32.20;;
10473;SDS011;5284;50.446;7.904;2022-08-19T03:02:19;48.05;;;33.78;;
10473;SDS011;5284;50.446;7.904;2022-08-19T03:07:22;48.20;;;33.45;;
10473;SDS011;5284;50.446;7.904;2022-08-19T03:12:26;48.55;;;33.20;;
10473;SDS011;5284;50.446;7.904;2022-08-19T03:17:29;54.22;;;33.15;;
10473;SDS011;5284;50.446;7.904;2022-08-19T03:22:32;57.28;;;35.72;;
10473;SDS011;5284;50.446;7.904;2022-08-19T03:27:36;58.78;;;37.30;;
10473;SDS011;5284;50.446;7.904;2022-08-19T03:32:39;55.00;;;33.55;;
10473;SDS011;5284;50.446;7.904;2022-08-19T03:37:45;55.50;;;35.28;;
10473;SDS011;5284;50.446;7.904;2022-08-19T03:42:50;64.57;;;36.45;;
10473;SDS011;5284;50.446;7.904;2022-08-19T03:47:52;54.53;;;37.28;;
10473;SDS011;5284;50.446;7.904;2022-08-19T03:52:55;61.75;;;36.72;;
10473;SDS011;5284;50.446;7.904;2022-08-19T03:57:59;57.42;;;37.78;;
10473;SDS011;5284;50.446;7.904;2022-08-19T04:03:02;52.88;;;36.55;;
10473;SDS011;5284;50.446;7.904;2022-08-19T04:08:05;60.67;;;40.28;;
10473;SDS011;5284;50.446;7.904;2022-08-19T04:13:15;60.13;;;39.47;;
10473;SDS011;5284;50.446;7.904;2022-08-19T04:18:19;58.92;;;38.80;;
10473;SDS011;5284;50.446;7.904;2022-08-19T04:23:22;61.30;;;38.33;;
10473;SDS011;5284;50.446;7.904;2022-08-19T04:28:26;60.45;;;39.60;;
10473;SDS011;5284;50.446;7.904;2022-08-19T04:33:30;58.20;;;37.70;;
10473;SDS011;5284;50.446;7.904;2022-08-19T04:38:33;65.07;;;39.17;;
10473;SDS011;5284;50.446;7.904;2022-08-19T04:43:37;63.80;;;38.95;;
10473;SDS011;5284;50.446;7.904;2022-08-19T04:48:40;58.38;;;37.53;;
10473;SDS011;5284;50.446;7.904;2022-08-19T04:53:50;63.45;;;39.38;;
10473;SDS011;5284;50.446;7.904;2022-08-19T04:58:55;57.47;;;37.10;;
10473;SDS011;5284;50.446;7.904;2022-08-19T05:03:58;59.33;;;35.35;;
10473;SDS011;5284;50.446;7.904;2022-08-19T05:09:04;61.53;;;39.10;;
10473;SDS011;5284;50.446;7.904;2022-08-19T05:14:09;54.97;;;36.35;;
10473;SDS011;5284;50.446;7.904;2022-08-19T05:19:13;61.80;;;34.17;;
10473;SDS011;5284;50.446;7.904;2022-08-19T05:24:33;56.65;;;36.42;;
10473;SDS011;5284;50.446;7.904;2022-08-19T05:29:53;59.58;;;35.45;;
10473;SDS011;5284;50.446;7.904;2022-08-19T05:34:55;54.33;;;35.28;;
10473;SDS011;5284;50.446;7.904;2022-08-19T05:39:59;58.58;;;34.08;;
10473;SDS011;5284;50.446;7.904;2022-08-19T05:45:04;56.03;;;32.80;;
10473;SDS011;5284;50.446;7.904;2022-08-19T05:50:08;54.45;;;34.33;;
10473;SDS011;5284;50.446;7.904;2022-08-19T05:55:11;53.53;;;36.20;;
10473;SDS011;5284;50.446;7.904;2022-08-19T06:00:16;59.80;;;36.58;;
10473;SDS011;5284;50.446;7.904;2022-08-19T06:05:24;59.97;;;34.80;;
10473;SDS011;5284;50.446;7.904;2022-08-19T06:10:27;56.28;;;34.72;;
10473;SDS011;5284;50.446;7.904;2022-08-19T06:15:33;54.50;;;34.60;;
10473;SDS011;5284;50.446;7.904;2022-08-19T06:20:36;57.00;;;36.72;;
10473;SDS011;5284;50.446;7.904;2022-08-19T06:25:55;52.70;;;31.85;;
10473;SDS011;5284;50.446;7.904;2022-08-19T06:31:00;55.33;;;33.72;;
10473;SDS011;5284;50.446;7.904;2022-08-19T06:36:15;55.40;;;33.47;;
10473;SDS011;5284;50.446;7.904;2022-08-19T06:41:19;57.10;;;33.28;;
10473;SDS011;5284;50.446;7.904;2022-08-19T06:46:23;62.40;;;34.78;;
10473;SDS011;5284;50.446;7.904;2022-08-19T06:51:27;59.97;;;36.72;;
10473;SDS011;5284;50.446;7.904;2022-08-19T06:56:32;60.28;;;37.10;;
10473;SDS011;5284;50.446;7.904;2022-08-19T07:01:37;56.53;;;37.80;;
10473;SDS011;5284;50.446;7.904;2022-08-19T07:06:42;57.53;;;38.15;;
10473;SDS011;5284;50.446;7.904;2022-08-19T07:11:55;59.45;;;38.83;;
10473;SDS011;5284;50.446;7.904;2022-08-19T07:16:59;56.20;;;39.67;;
10473;SDS011;5284;50.446;7.904;2022-08-19T07:22:03;60.28;;;36.67;;
10473;SDS011;5284;50.446;7.904;2022-08-19T07:27:13;55.53;;;37.45;;
10473;SDS011;5284;50.446;7.904;2022-08-19T07:32:18;60.00;;;34.90;;
10473;SDS011;5284;50.446;7.904;2022-08-19T07:37:21;52.65;;;35.15;;
10473;SDS011;5284;50.446;7.904;2022-08-19T07:42:24;62.80;;;36.05;;
10473;SDS011;5284;50.446;7.904;2022-08-19T07:47:29;64.38;;;40.67;;
10473;SDS011;5284;50.446;7.904;2022-08-19T07:52:52;66.22;;;42.92;;
10473;SDS011;5284;50.446;7.904;2022-08-19T07:57:55;70.80;;;46.53;;
10473;SDS011;5284;50.446;7.904;2022-08-19T08:02:59;68.50;;;45.70;;
10473;SDS011;5284;50.446;7.904;2022-08-19T08:08:02;65.55;;;44.33;;
10473;SDS011;5284;50.446;7.904;2022-08-19T08:13:44;63.83;;;43.05;;
10473;SDS011;5284;50.446;7.904;2022-08-19T08:24:26;67.97;;;42.38;;
10473;SDS011;5284;50.446;7.904;2022-08-19T08:29:32;62.03;;;41.73;;
10473;SDS011;5284;50.446;7.904;2022-08-19T08:34:37;54.42;;;38.22;;
10473;SDS011;5284;50.446;7.904;2022-08-19T08:39:39;64.05;;;37.25;;
10473;SDS011;5284;50.446;7.904;2022-08-19T08:44:43;59.13;;;39.25;;
10473;SDS011;5284;50.446;7.904;2022-08-19T08:50:01;65.50;;;41.53;;
10473;SDS011;5284;50.446;7.904;2022-08-19T08:55:08;55.97;;;41.90;;
10473;SDS011;5284;50.446;7.904;2022-08-19T09:00:14;49.60;;;36.55;;
10473;SDS011;5284;50.446;7.904;2022-08-19T09:05:24;48.55;;;35.92;;
10473;SDS011;5284;50.446;7.904;2022-08-19T09:10:49;47.55;;;33.05;;
10473;SDS011;5284;50.446;7.904;2022-08-19T09:15:56;39.90;;;28.80;;
10473;SDS011;5284;50.446;7.904;2022-08-19T09:21:05;36.80;;;26.27;;
10473;SDS011;5284;50.446;7.904;2022-08-19T09:26:09;34.10;;;22.27;;
10473;SDS011;5284;50.446;7.904;2022-08-19T09:31:17;33.13;;;23.42;;
10473;SDS011;5284;50.446;7.904;2022-08-19T09:36:23;27.45;;;21.05;;
10473;SDS011;5284;50.446;7.904;2022-08-19T09:41:35;25.48;;;18.23;;
10473;SDS011;5284;50.446;7.904;2022-08-19T09:46:38;23.60;;;18.08;;
10473;SDS011;5284;50.446;7.904;2022-08-19T09:51:42;23.00;;;14.60;;
10473;SDS011;5284;50.446;7.904;2022-08-19T09:56:51;18.50;;;13.20;;
10473;SDS011;5284;50.446;7.904;2022-08-19T10:01:54;19.10;;;14.32;;
10473;SDS011;5284;50.446;7.904;2022-08-19T10:07:12;16.23;;;10.18;;
10473;SDS011;5284;50.446;7.904;2022-08-19T10:12:15;14.38;;;9.70;;
10473;SDS011;5284;50.446;7.904;2022-08-19T10:17:20;14.80;;;9.07;;
10473;SDS011;5284;50.446;7.904;2022-08-19T10:22:29;14.02;;;7.82;;
10473;SDS011;5284;50.446;7.904;2022-08-19T10:27:32;11.02;;;7.10;;
10473;SDS011;5284;50.446;7.904;2022-08-19T10:32:36;10.88;;;6.28;;
10473;SDS011;5284;50.446;7.904;2022-08-19T10:37:48;13.23;;;7.97;;
10473;SDS011;5284;50.446;7.904;2022-08-19T10:43:00;11.65;;;7.22;;
10473;SDS011;5284;50.446;7.904;2022-08-19T10:48:03;11.52;;;7.10;;
10473;SDS011;5284;50.446;7.904;2022-08-19T10:53:07;14.90;;;6.72;;
10473;SDS011;5284;50.446;7.904;2022-08-19T10:58:11;9.95;;;6.10;;
10473;SDS011;5284;50.446;7.904;2022-08-19T11:03:15;13.73;;;7.30;;
10473;SDS011;5284;50.446;7.904;2022-08-19T11:08:19;11.43;;;6.40;;
10473;SDS011;5284;50.446;7.904;2022-08-19T11:18:27;7.47;;;6.05;;
10473;SDS011;5284;50.446;7.904;2022-08-19T11:23:31;21.98;;;9.82;;
10473;SDS011;5284;50.446;7.904;2022-08-19T11:28:34;10.50;;;7.03;;
10473;SDS011;5284;50.446;7.904;2022-08-19T11:33:37;15.32;;;7.43;;
10473;SDS011;5284;50.446;7.904;2022-08-19T11:38:43;18.48;;;9.40;;
10473;SDS011;5284;50.446;7.904;2022-08-19T11:43:47;7.10;;;5.50;;
10473;SDS011;5284;50.446;7.904;2022-08-19T11:48:50;10.70;;;7.60;;
10473;SDS011;5284;50.446;7.904;2022-08-19T11:53:54;8.60;;;6.75;;
10473;SDS011;5284;50.446;7.904;2022-08-19T11:58:59;8.55;;;4.63;;
10473;SDS011;5284;50.446;7.904;2022-08-19T12:04:03;10.65;;;6.15;;
10473;SDS011;5284;50.446;7.904;2022-08-19T12:09:08;9.43;;;6.38;;
10473;SDS011;5284;50.446;7.904;2022-08-19T12:14:12;12.63;;;6.55;;
10473;SDS011;5284;50.446;7.904;2022-08-19T12:19:19;9.90;;;4.90;;
10473;SDS011;5284;50.446;7.904;2022-08-19T12:24:24;10.70;;;4.55;;
10473;SDS011;5284;50.446;7.904;2022-08-19T12:29:27;6.57;;;5.38;;
10473;SDS011;5284;50.446;7.904;2022-08-19T12:34:30;7.53;;;4.85;;
10473;SDS011;5284;50.446;7.904;2022-08-19T12:39:37;6.78;;;3.80;;
10473;SDS011;5284;50.446;7.904;2022-08-19T12:44:41;8.68;;;5.20;;
10473;SDS011;5284;50.446;7.904;2022-08-19T12:49:45;12.73;;;6.80;;
10473;SDS011;5284;50.446;7.904;2022-08-19T12:54:56;8.65;;;5.70;;
10473;SDS011;5284;50.446;7.904;2022-08-19T13:00:00;8.27;;;4.82;;
10473;SDS011;5284;50.446;7.904;2022-08-19T13:05:08;4.45;;;3.40;;
10473;SDS011;5284;50.446;7.904;2022-08-19T13:10:15;6.63;;;4.10;;
10473;SDS011;5284;50.446;7.904;2022-08-19T13:15:21;8.73;;;4.95;;
10473;SDS011;5284;50.446;7.904;2022-08-19T13:20:25;7.80;;;5.38;;
10473;SDS011;5284;50.446;7.904;2022-08-19T13:25:29;12.68;;;4.47;;
10473;SDS011;5284;50.446;7.904;2022-08-19T13:30:32;5.18;;;4.38;;
10473;SDS011;5284;50.446;7.904;2022-08-19T13:35:56;7.88;;;4.47;;
10473;SDS011;5284;50.446;7.904;2022-08-19T13:41:05;11.15;;;6.85;;
10473;SDS011;5284;50.446;7.904;2022-08-19T13:46:13;9.85;;;5.75;;
10473;SDS011;5284;50.446;7.904;2022-08-19T13:51:16;9.85;;;6.55;;
10473;SDS011;5284;50.446;7.904;2022-08-19T14:01:26;11.13;;;6.70;;
10473;SDS011;5284;50.446;7.904;2022-08-19T14:06:31;10.25;;;6.30;;
10473;SDS011;5284;50.446;7.904;2022-08-19T14:11:35;10.70;;;6.18;;
10473;SDS011;5284;50.446;7.904;2022-08-19T14:16:38;8.90;;;6.30;;
10473;SDS011;5284;50.446;7.904;2022-08-19T14:21:41;7.40;;;5.10;;
10473;SDS011;5284;50.446;7.904;2022-08-19T14:26:45;5.95;;;4.75;;
10473;SDS011;5284;50.446;7.904;2022-08-19T14:31:48;5.35;;;4.60;;
10473;SDS011;5284;50.446;7.904;2022-08-19T14:36:50;10.30;;;4.32;;
10473;SDS011;5284;50.446;7.904;2022-08-19T14:41:55;8.68;;;5.32;;
10473;SDS011;5284;50.446;7.904;2022-08-19T14:46:58;11.48;;;4.95;;
10473;SDS011;5284;50.446;7.904;2022-08-19T14:52:03;10.23;;;4.88;;
10473;SDS011;5284;50.446;7.904;2022-08-19T14:57:07;14.02;;;5.40;;
10473;SDS011;5284;50.446;7.904;2022-08-19T15:02:14;10.60;;;4.15;;
10473;SDS011;5284;50.446;7.904;2022-08-19T15:07:34;6.10;;;3.90;;
10473;SDS011;5284;50.446;7.904;2022-08-19T15:12:38;9.50;;;4.53;;
10473;SDS011;5284;50.446;7.904;2022-08-19T15:17:42;8.15;;;4.07;;
10473;SDS011;5284;50.446;7.904;2022-08-19T15:22:47;5.35;;;3.80;;
10473;SDS011;5284;50.446;7.904;2022-08-19T15:27:51;4.75;;;3.80;;
10473;SDS011;5284;50.446;7.904;2022-08-19T15:32:54;4.68;;;3.60;;
10473;SDS011;5284;50.446;7.904;2022-08-19T15:37:58;3.80;;;3.40;;
10473;SDS011;5284;50.446;7.904;2022-08-19T15:43:02;6.35;;;3.72;;
10473;SDS011;5284;50.446;7.904;2022-08-19T15:48:05;7.35;;;3.40;;
10473;SDS011;5284;50.446;7.904;2022-08-19T15:53:08;3.00;;;2.80;;
10473;SDS011;5284;50.446;7.904;2022-08-19T15:58:15;3.70;;;2.53;;
10473;SDS011;5284;50.446;7.904;2022-08-19T16:03:35;6.35;;;3.10;;
10473;SDS011;5284;50.446;7.904;2022-08-19T16:08:56;3.42;;;3.13;;
10473;SDS011;5284;50.446;7.904;2022-08-19T16:14:03;4.93;;;3.40;;
10473;SDS011;5284;50.446;7.904;2022-08-19T16:19:09;7.65;;;4.50;;
10473;SDS011;5284;50.446;7.904;2022-08-19T16:24:14;11.65;;;4.20;;
10473;SDS011;5284;50.446;7.904;2022-08-19T16:29:21;10.52;;;5.13;;
10473;SDS011;5284;50.446;7.904;2022-08-19T16:34:35;8.13;;;5.82;;
10473;SDS011;5284;50.446;7.904;2022-08-19T16:39:39;11.48;;;5.70;;
10473;SDS011;5284;50.446;7.904;2022-08-19T16:44:46;8.20;;;5.95;;
10473;SDS011;5284;50.446;7.904;2022-08-19T16:49:48;18.43;;;6.17;;
10473;SDS011;5284;50.446;7.904;2022-08-19T16:54:55;5.60;;;4.72;;
10473;SDS011;5284;50.446;7.904;2022-08-19T16:59:59;16.27;;;6.50;;
10473;SDS011;5284;50.446;7.904;2022-08-19T17:05:06;20.02;;;6.75;;
10473;SDS011;5284;50.446;7.904;2022-08-19T17:10:10;10.70;;;7.50;;
10473;SDS011;5284;50.446;7.904;2022-08-19T17:15:14;20.38;;;7.53;;
10473;SDS011;5284;50.446;7.904;2022-08-19T17:20:17;12.52;;;7.38;;
10473;SDS011;5284;50.446;7.904;2022-08-19T17:25:20;14.43;;;7.82;;
10473;SDS011;5284;50.446;7.904;2022-08-19T17:30:24;14.57;;;8.18;;
10473;SDS011;5284;50.446;7.904;2022-08-19T17:35:27;18.40;;;8.38;;
10473;SDS011;5284;50.446;7.904;2022-08-19T17:40:30;14.60;;;9.32;;
10473;SDS011;5284;50.446;7.904;2022-08-19T17:45:35;13.55;;;8.57;;
10473;SDS011;5284;50.446;7.904;2022-08-19T17:50:38;16.40;;;9.05;;
10473;SDS011;5284;50.446;7.904;2022-08-19T17:55:41;16.80;;;9.30;;
10473;SDS011;5284;50.446;7.904;2022-08-19T18:00:49;19.52;;;8.85;;
10473;SDS011;5284;50.446;7.904;2022-08-19T18:05:54;23.77;;;8.05;;
10473;SDS011;5284;50.446;7.904;2022-08-19T18:10:58;12.80;;;8.98;;
10473;SDS011;5284;50.446;7.904;2022-08-19T18:16:03;11.55;;;7.43;;
10473;SDS011;5284;50.446;7.904;2022-08-19T18:21:11;14.00;;;7.82;;
10473;SDS011;5284;50.446;7.904;2022-08-19T18:26:14;14.43;;;7.50;;
10473;SDS011;5284;50.446;7.904;2022-08-19T18:31:18;14.32;;;7.88;;
10473;SDS011;5284;50.446;7.904;2022-08-19T18:36:21;11.00;;;6.20;;
10473;SDS011;5284;50.446;7.904;2022-08-19T18:41:44;14.73;;;6.10;;
10473;SDS011;5284;50.446;7.904;2022-08-19T18:47:05;12.98;;;5.55;;
10473;SDS011;5284;50.446;7.904;2022-08-19T18:52:26;8.80;;;5.32;;
10473;SDS011;5284;50.446;7.904;2022-08-19T18:57:29;14.15;;;5.28;;
10473;SDS011;5284;50.446;7.904;2022-08-19T19:02:36;14.18;;;5.10;;
10473;SDS011;5284;50.446;7.904;2022-08-19T19:07:40;10.40;;;4.45;;
10473;SDS011;5284;50.446;7.904;2022-08-19T19:12:44;14.00;;;4.28;;
10473;SDS011;5284;50.446;7.904;2022-08-19T19:17:48;11.85;;;4.80;;
10473;SDS011;5284;50.446;7.904;2022-08-19T19:22:51;9.82;;;4.00;;
10473;SDS011;5284;50.446;7.904;2022-08-19T19:27:58;13.43;;;3.58;;
10473;SDS011;5284;50.446;7.904;2022-08-19T19:33:02;6.68;;;4.32;;
10473;SDS011;5284;50.446;7.904;2022-08-19T19:38:06;8.25;;;3.63;;
10473;SDS011;5284;50.446;7.904;2022-08-19T19:43:08;11.82;;;4.50;;
10473;SDS011;5284;50.446;7.904;2022-08-19T19:48:13;9.82;;;4.15;;
10473;SDS011;5284;50.446;7.904;2022-08-19T19:53:16;7.20;;;3.15;;
10473;SDS011;5284;50.446;7.904;2022-08-19T19:58:19;11.00;;;2.78;;
10473;SDS011;5284;50.446;7.904;2022-08-19T20:03:30;4.45;;;2.95;;
10473;SDS011;5284;50.446;7.904;2022-08-19T20:08:34;3.92;;;3.20;;
10473;SDS011;5284;50.446;7.904;2022-08-19T20:13:55;6.78;;;3.17;;
10473;SDS011;5284;50.446;7.904;2022-08-19T20:18:59;10.63;;;3.25;;
10473;SDS011;5284;50.446;7.904;2022-08-19T20:24:03;12.48;;;3.53;;
10473;SDS011;5284;50.446;7.904;2022-08-19T20:29:10;6.57;;;3.30;;
10473;SDS011;5284;50.446;7.904;2022-08-19T20:34:34;11.73;;;2.58;;
10473;SDS011;5284;50.446;7.904;2022-08-19T20:39:37;9.15;;;3.00;;
10473;SDS011;5284;50.446;7.904;2022-08-19T20:44:40;5.72;;;2.60;;
10473;SDS011;5284;50.446;7.904;2022-08-19T20:49:44;9.70;;;2.80;;
10473;SDS011;5284;50.446;7.904;2022-08-19T20:54:47;9.95;;;3.13;;
10473;SDS011;5284;50.446;7.904;2022-08-19T20:59:50;6.82;;;3.47;;
10473;SDS011;5284;50.446;7.904;2022-08-19T21:04:54;7.13;;;2.45;;
10473;SDS011;5284;50.446;7.904;2022-08-19T21:10:00;7.28;;;2.92;;
10473;SDS011;5284;50.446;7.904;2022-08-19T21:15:05;4.82;;;2.40;;
10473;SDS011;5284;50.446;7.904;2022-08-19T21:20:10;6.25;;;3.67;;
10473;SDS011;5284;50.446;7.904;2022-08-19T21:25:14;7.05;;;3.05;;
10473;SDS011;5284;50.446;7.904;2022-08-19T21:30:17;12.68;;;2.97;;
10473;SDS011;5284;50.446;7.904;2022-08-19T21:35:22;5.28;;;2.83;;
10473;SDS011;5284;50.446;7.904;2022-08-19T21:40:25;18.58;;;3.65;;
10473;SDS011;5284;50.446;7.904;2022-08-19T21:45:28;5.65;;;2.85;;
10473;SDS011;5284;50.446;7.904;2022-08-19T21:50:33;13.65;;;3.63;;
10473;SDS011;5284;50.446;7.904;2022-08-19T21:55:36;5.88;;;2.70;;
10473;SDS011;5284;50.446;7.904;2022-08-19T22:00:39;4.50;;;2.65;;
10473;SDS011;5284;50.446;7.904;2022-08-19T22:05:44;6.43;;;2.78;;
10473;SDS011;5284;50.446;7.904;2022-08-19T22:10:46;13.63;;;3.47;;
10473;SDS011;5284;50.446;7.904;2022-08-19T22:15:50;8.55;;;2.80;;
10473;SDS011;5284;50.446;7.904;2022-08-19T22:20:54;7.80;;;3.28;;
10473;SDS011;5284;50.446;7.904;2022-08-19T22:25:57;12.13;;;3.53;;
10473;SDS011;5284;50.446;7.904;2022-08-19T22:31:00;7.60;;;3.35;;
10473;SDS011;5284;50.446;7.904;2022-08-19T22:36:05;8.32;;;3.38;;
10473;SDS011;5284;50.446;7.904;2022-08-19T22:41:08;8.13;;;3.58;;
10473;SDS011;5284;50.446;7.904;2022-08-19T22:46:12;7.13;;;3.85;;
10473;SDS011;5284;50.446;7.904;2022-08-19T22:51:19;16.65;;;3.33;;
10473;SDS011;5284;50.446;7.904;2022-08-19T22:56:39;5.47;;;3.13;;
10473;SDS011;5284;50.446;7.904;2022-08-19T23:01:43;6.55;;;3.72;;
10473;SDS011;5284;50.446;7.904;2022-08-19T23:06:48;7.40;;;3.30;;
10473;SDS011;5284;50.446;7.904;2022-08-19T23:11:53;7.63;;;3.53;;
10473;SDS011;5284;50.446;7.904;2022-08-19T23:16:55;5.60;;;2.63;;
10473;SDS011;5284;50.446;7.904;2022-08-19T23:22:01;6.82;;;3.03;;
10473;SDS011;5284;50.446;7.904;2022-08-19T23:27:05;5.53;;;2.95;;
10473;SDS011;5284;50.446;7.904;2022-08-19T23:32:26;4.53;;;3.40;;
10473;SDS011;5284;50.446;7.904;2022-08-19T23:37:30;5.38;;;2.97;;
10473;SDS011;5284;50.446;7.904;2022-08-19T23:42:33;6.80;;;2.58;;
10473;SDS011;5284;50.446;7.904;2022-08-19T23:47:36;7.47;;;2.47;;
10473;SDS011;5284;50.446;7.904;2022-08-19T23:52:43;3.40;;;2.60;;
10473;SDS011;5284;50.446;7.904;2022-08-19T23:57:48;8.67;;;2.30;;
